August 14, 2022

Time Code Weather Temp. Visibility Ceiling Wind METAR/SPECI
12:51 am
V
70 °F 10 mi - 260° 260° 7 kt METAR KJFK 140451Z 26007KT 10SM FEW250 21/13 A3009 RMK AO2 SLP187 T02110133 402720183

August 13, 2022

Time Code Weather Temp. Visibility Ceiling Wind METAR/SPECI
11:51 pm
V
70 °F 10 mi - 230° 230° 9 kt METAR KJFK 140351Z 23009KT 10SM SCT250 21/13 A3009 RMK AO2 SLP188 T02060133
10:51 pm
V
70 °F 10 mi - 200° 200° 9 kt METAR KJFK 140251Z 20009KT 10SM FEW085 SCT250 21/15 A3009 RMK AO2 SLP188 T02110150 50008
9:51 pm
V
70 °F 10 mi 8,000 ft 190° 190° 9 kt METAR KJFK 140151Z 19009KT 10SM BKN080 21/14 A3009 RMK AO2 SLP189 T02110139
8:51 pm
V
72 °F 10 mi - 160° 160° 7 kt METAR KJFK 140051Z 16007KT 10SM FEW070 FEW200 22/13 A3008 RMK AO2 SLP184 T02220128
7:51 pm
V
75 °F 10 mi - 060° 060° 5 kt METAR KJFK 132351Z 06005KT 10SM FEW070 FEW200 24/09 A3006 RMK AO2 SLP180 T02390089 10272 20239 53004
6:51 pm
V
79 °F 10 mi - 030° 030° 6 kt METAR KJFK 132251Z 03006KT 10SM FEW070 FEW200 26/08 A3005 RMK AO2 SLP175 T02560083
5:51 pm
V
81 °F 10 mi - Var Var 4 kt METAR KJFK 132151Z VRB04KT 10SM SCT070 SCT200 27/08 A3005 RMK AO2 SLP174 T02670083
4:51 pm
V
81 °F 10 mi - 360° 360° 12 - 18 kt METAR KJFK 132051Z 36012G18KT 10SM SCT065 27/08 A3005 RMK AO2 SLP175 T02670078 56012
3:51 pm
V
81 °F 10 mi - 030° 030° 8 kt METAR KJFK 131951Z 03008KT 10SM SCT065 27/08 A3006 RMK AO2 SLP179 T02670083
2:51 pm
V
81 °F 10 mi 6,500 ft 030° 030° 12 kt METAR KJFK 131851Z 03012KT 10SM BKN065 BKN090 27/09 A3007 RMK AO2 SLP183 T02670089
1:51 pm
V
79 °F 10 mi 6,500 ft 010° 010° 10 kt METAR KJFK 131751Z 01010KT 10SM BKN065 BKN090 26/08 A3009 RMK AO2 SLP188 T02610083 10261 20211 58006
12:51 pm
V
75 °F 10 mi 6,000 ft 360° 360° 13 kt METAR KJFK 131651Z 36013KT 10SM BKN060 BKN090 24/09 A3011 RMK AO2 SLP194 T02440089
11:51 am
V
73 °F 10 mi 5,500 ft 330° 330° 10 kt METAR KJFK 131551Z 33010KT 10SM BKN055 BKN085 23/09 A3011 RMK AO2 SLP195 T02330089
10:51 am
V
75 °F 10 mi - 360° 360° 9 - 20 kt METAR KJFK 131451Z 36009G20KT 10SM SCT050 SCT085 24/08 A3010 RMK AO2 SLP194 T02390083 58000
9:51 am
V
73 °F 10 mi - 340° 340° 13 kt METAR KJFK 131351Z 34013KT 10SM FEW050 FEW080 FEW250 23/08 A3011 RMK AO2 SLP194 T02330083
8:51 am
V
72 °F 10 mi - 360° 360° 10 kt METAR KJFK 131251Z 36010KT 10SM FEW080 FEW250 22/09 A3011 RMK AO2 SLP194 T02220094
7:51 am
V
70 °F 10 mi - 360° 360° 12 kt METAR KJFK 131151Z 36012KT 10SM FEW080 FEW250 21/11 A3011 RMK AO2 SLP194 T02110106 10211 20183 52013
6:51 am
V
66 °F 10 mi - 360° 360° 13 kt METAR KJFK 131051Z 36013KT 10SM FEW050 FEW220 19/11 A3009 RMK AO2 SLP190 T01940106
5:51 am
V
66 °F 10 mi - 360° 360° 10 kt METAR KJFK 130951Z 36010KT 10SM FEW220 19/11 A3008 RMK AO2 SLP186 T01890106
4:51 am
V
66 °F 10 mi - 360° 360° 9 kt METAR KJFK 130851Z 36009KT 10SM CLR 19/10 A3007 RMK AO2 SLP181 T01890100 53004
3:51 am
V
66 °F 10 mi - 360° 360° 9 kt METAR KJFK 130751Z 36009KT 10SM CLR 19/09 A3006 RMK AO2 SLP179 T01940094
2:51 am
V
68 °F 10 mi - 350° 350° 11 kt METAR KJFK 130651Z 35011KT 10SM FEW250 20/08 A3005 RMK AO2 SLP176 T02000083
1:51 am
V
70 °F 10 mi - 010° 010° 8 kt METAR KJFK 130551Z 01008KT 10SM FEW250 21/08 A3006 RMK AO2 SLP177 T02110078 10244 20211 50003
12:51 am
V
72 °F 10 mi - 360° 360° 11 kt METAR KJFK 130451Z 36011KT 10SM FEW250 22/08 A3006 RMK AO2 SLP179 T02170078 403060217

August 12, 2022

Time Code Weather Temp. Visibility Ceiling Wind METAR/SPECI
11:51 pm
V
73 °F 10 mi - 360° 360° 11 kt METAR KJFK 130351Z 36011KT 10SM FEW250 23/07 A3005 RMK AO2 SLP176 T02280072
10:51 pm
V
75 °F 10 mi - 360° 360° 11 - 18 kt METAR KJFK 130251Z 36011G18KT 10SM FEW090 SCT250 24/07 A3005 RMK AO2 SLP174 T02390072 51017
9:51 pm
V
75 °F 10 mi - 030° 030° 5 kt METAR KJFK 130151Z 03005KT 10SM SCT090 SCT250 24/11 A3004 RMK AO2 SLP172 T02390111
8:51 pm
V
75 °F 10 mi 10,000 ft Var 000° 0 kt METAR KJFK 130051Z 00000KT 10SM BKN100 BKN250 24/15 A3003 RMK AO2 SLP167 T02390150
7:51 pm
V
75 °F 10 mi - 150° 150° 4 kt METAR KJFK 122351Z 15004KT 10SM SCT100 SCT250 24/16 A3000 RMK AO2 SLP157 T02390161 10306 20239 53012
6:51 pm
V
77 °F 10 mi 25,000 ft 180° 180° 7 kt METAR KJFK 122251Z 18007KT 10SM FEW065 SCT100 BKN250 25/16 A2998 RMK AO2 SLP152 T02500156
5:51 pm
V
82 °F 10 mi 25,000 ft 040° 040° 7 kt METAR KJFK 122151Z 04007KT 10SM FEW065 SCT090 BKN250 28/07 A2998 RMK AO2 SLP150 T02830072
4:51 pm
V
84 °F 10 mi 25,000 ft 050° 050° 9 kt METAR KJFK 122051Z 05009KT 10SM FEW065 FEW150 BKN250 29/07 A2996 RMK AO2 SLP146 T02890072 56008
3:51 pm
V
84 °F 10 mi 25,000 ft Var Var 5 kt METAR KJFK 121951Z VRB05KT 10SM FEW065 FEW180 BKN250 29/07 A2997 RMK AO2 SLP148 T02940072
2:51 pm
V
84 °F 10 mi 25,000 ft 040° 040° 12 - 19 kt METAR KJFK 121851Z 04012G19KT 10SM FEW065 FEW180 BKN250 29/08 A2998 RMK AO2 SLP150 T02890083
1:51 pm
V
84 °F 10 mi - Var Var 6 - 16 kt METAR KJFK 121751Z VRB06G16KT 10SM FEW065 FEW180 SCT250 29/10 A2999 RMK AO2 SLP154 T02890100 10289 20228 58006
12:51 pm
V
82 °F 10 mi - 020° 020° 9 - 16 kt METAR KJFK 121651Z 02009G16KT 10SM FEW065 FEW220 SCT250 28/10 A2999 RMK AO2 SLP156 T02830100
11:51 am
V
81 °F 10 mi - 350° 350° 15 kt METAR KJFK 121551Z 35015KT 10SM FEW060 FEW220 SCT250 27/11 A3000 RMK AO2 SLP159 T02670106
10:51 am
V
79 °F 10 mi 22,000 ft 360° 360° 13 kt METAR KJFK 121451Z 36013KT 10SM FEW085 BKN220 BKN250 26/12 A3000 RMK AO2 SLP160 T02560122 51009
9:51 am
V
75 °F 10 mi 21,000 ft 360° 360° 14 kt METAR KJFK 121351Z 36014KT 10SM FEW085 BKN210 BKN250 24/13 A2999 RMK AO2 SLP156 T02440133
8:51 am
V
75 °F 10 mi 21,000 ft 010° 010° 14 kt METAR KJFK 121251Z 01014KT 10SM SCT090 BKN210 BKN250 24/13 A2999 RMK AO2 SLP156 T02440133
7:51 am
V
73 °F 10 mi 21,000 ft 360° 360° 13 kt METAR KJFK 121151Z 36013KT 10SM SCT085 SCT150 BKN210 BKN250 23/14 A2998 RMK AO2 SLP151 70016 T02280144 10250 20222 51019
6:51 am
V
72 °F 10 mi 15,000 ft 360° 360° 12 kt METAR KJFK 121051Z 36012KT 10SM SCT085 BKN150 BKN250 22/14 A2996 RMK AO2 SLP146 T02220144
5:51 am
V
72 °F 10 mi 15,000 ft 360° 360° 11 kt METAR KJFK 120951Z 36011KT 10SM SCT090 BKN150 BKN220 22/15 A2995 RMK AO2 SLP141 T02220150
4:51 am
V
73 °F 10 mi 14,000 ft 350° 350° 12 kt METAR KJFK 120851Z 35012KT 10SM FEW090 OVC140 23/14 A2992 RMK AO2 SLP132 T02280144 50004
3:51 am
V
73 °F 10 mi 12,000 ft 360° 360° 8 kt METAR KJFK 120751Z 36008KT 10SM SCT080 OVC120 23/14 A2993 RMK AO2 SLP134 T02330144
2:51 am
V
75 °F 10 mi 12,000 ft 360° 360° 10 kt METAR KJFK 120651Z 36010KT 10SM SCT080 BKN120 OVC250 24/14 A2992 RMK AO2 SLP132 T02390139
1:51 am
V
77 °F 10 mi 25,000 ft 010° 010° 9 kt METAR KJFK 120551Z 01009KT 10SM FEW090 BKN250 25/13 A2991 RMK AO2 SLP127 T02500133 10256 20233 51005
12:51 am
V
77 °F 10 mi 25,000 ft 010° 010° 14 kt METAR KJFK 120451Z 01014KT 10SM FEW090 BKN250 25/15 A2990 RMK AO2 SLP126 T02500150 403000222

August 11, 2022

Time Code Weather Temp. Visibility Ceiling Wind METAR/SPECI
11:51 pm
V
75 °F 10 mi 23,000 ft 080° 080° 3 kt METAR KJFK 120351Z 08003KT 10SM FEW060 SCT130 BKN230 24/21 A2990 RMK AO2 SLP123 T02390211
10:51 pm
V
73 °F 10 mi 11,000 ft 230° 230° 3 kt METAR KJFK 120251Z 23003KT 10SM SCT060 BKN110 23/22 A2989 RMK AO2 SLP122 T02330217 51010
Older data

We and third parties follow your internet behavior on our website with cookies. If you continue, we assume you agree with our cookie policy. Learn more